Time;durP1;ratioP1;P1;durP2;ratioP2;P2;SDS_P1;SDS_P2;PMS_P1;PMS_P2;Temp;Humidity;BMP_temperature;BMP_pressure;BME280_temperature;BME280_humidity;BME280_pressure;Samples;Min_cycle;Max_cycle;Signal;HPM_P1;HPM_P2
2022/01/07 00:02:04;;;;;;;19.55;17.40;;;0.00;99.90;;;;;;5026755;28;20240;-74
2022/01/07 00:04:35;;;;;;;25.70;19.45;;;0.00;99.90;;;;;;5030707;28;20198;-74
2022/01/07 00:07:03;;;;;;;22.20;18.52;;;0.00;99.90;;;;;;5032195;28;20204;-75
2022/01/07 00:09:30;;;;;;;27.83;19.55;;;0.00;99.90;;;;;;5031210;28;20225;-74
2022/01/07 00:11:57;;;;;;;27.48;19.13;;;0.00;99.90;;;;;;5030932;28;20316;-75
2022/01/07 00:14:24;;;;;;;24.25;16.85;;;0.00;99.90;;;;;;5020652;28;20220;-75
2022/01/07 00:16:51;;;;;;;20.48;17.95;;;0.00;99.90;;;;;;5029852;28;20285;-75
2022/01/07 00:19:19;;;;;;;20.65;16.23;;;0.00;99.90;;;;;;5032600;28;20289;-74
2022/01/07 00:21:46;;;;;;;19.38;14.93;;;0.10;99.90;;;;;;5034292;28;20206;-74
2022/01/07 00:24:13;;;;;;;18.75;16.58;;;0.10;99.90;;;;;;5029626;28;20218;-74
2022/01/07 00:26:40;;;;;;;19.88;15.93;;;0.10;99.90;;;;;;5020326;28;20198;-74
2022/01/07 00:29:07;;;;;;;20.92;16.70;;;0.10;99.90;;;;;;5017040;28;20194;-74
2022/01/07 00:31:34;;;;;;;24.05;15.88;;;0.10;99.90;;;;;;5025638;28;20225;-74
2022/01/07 00:34:01;;;;;;;19.10;15.52;;;0.10;99.90;;;;;;5033087;28;20253;-74
2022/01/07 00:36:29;;;;;;;22.75;15.90;;;0.00;99.90;;;;;;5020035;28;20289;-74
2022/01/07 00:38:56;;;;;;;18.77;15.65;;;0.00;99.90;;;;;;5025313;28;20261;-74
2022/01/07 00:41:23;;;;;;;20.27;15.02;;;0.10;99.90;;;;;;5036953;28;20208;-74
2022/01/07 00:43:50;;;;;;;19.10;16.45;;;0.10;99.90;;;;;;5030111;28;20213;-75
2022/01/07 00:46:19;;;;;;;19.00;14.85;;;0.00;99.90;;;;;;5029903;28;20724;-74
2022/01/07 00:48:46;;;;;;;21.45;15.23;;;0.10;99.90;;;;;;5028583;28;20280;-75
2022/01/07 00:51:13;;;;;;;20.25;15.27;;;0.00;99.90;;;;;;5011444;28;20205;-74
2022/01/07 00:53:42;;;;;;;18.08;15.00;;;0.00;99.90;;;;;;5011427;28;20704;-75
2022/01/07 00:56:09;;;;;;;22.30;16.08;;;0.00;99.90;;;;;;5016878;28;20202;-75
2022/01/07 00:58:36;;;;;;;19.20;15.80;;;0.00;99.90;;;;;;5030541;28;20202;-74
2022/01/07 01:01:03;;;;;;;17.77;14.63;;;0.00;99.90;;;;;;5025404;28;20284;-74
2022/01/07 01:03:30;;;;;;;20.55;15.73;;;0.00;99.90;;;;;;5023672;28;20226;-75
2022/01/07 01:05:58;;;;;;;16.65;14.95;;;0.00;99.90;;;;;;5011654;28;20208;-72
2022/01/07 01:08:25;;;;;;;22.08;15.75;;;0.00;99.90;;;;;;5012737;28;20198;-73
2022/01/07 01:10:54;;;;;;;17.30;14.77;;;0.00;99.90;;;;;;5029251;28;20202;-72
2022/01/07 01:13:21;;;;;;;18.10;15.38;;;0.00;99.90;;;;;;5030851;28;20226;-73
2022/01/07 01:15:49;;;;;;;21.08;16.25;;;-0.10;99.90;;;;;;5023675;28;20194;-73
2022/01/07 01:18:17;;;;;;;19.70;16.00;;;-0.10;99.90;;;;;;5027701;28;20221;-73
2022/01/07 01:20:44;;;;;;;22.42;15.85;;;-0.10;99.90;;;;;;5034912;28;20293;-73
2022/01/07 01:23:11;;;;;;;20.70;15.57;;;-0.10;99.90;;;;;;5032714;28;20210;-73
2022/01/07 01:25:38;;;;;;;18.92;14.63;;;-0.10;99.90;;;;;;5033697;28;20230;-74
2022/01/07 01:28:06;;;;;;;17.10;14.65;;;-0.10;99.90;;;;;;5033623;28;20201;-74
2022/01/07 01:30:35;;;;;;;16.05;13.75;;;-0.10;99.90;;;;;;5034350;28;20285;-72
2022/01/07 01:33:02;;;;;;;16.80;14.50;;;-0.20;99.90;;;;;;5034361;28;20226;-72
2022/01/07 01:35:29;;;;;;;19.25;15.40;;;-0.20;99.90;;;;;;5034521;28;20626;-73
2022/01/07 01:37:57;;;;;;;15.93;14.13;;;-0.20;99.90;;;;;;5033611;28;20216;-72
2022/01/07 01:40:23;;;;;;;20.60;15.70;;;-0.30;99.90;;;;;;5033811;28;20288;-73
2022/01/07 01:42:52;;;;;;;21.95;15.65;;;-0.30;99.90;;;;;;5029468;28;20299;-73
2022/01/07 01:45:22;;;;;;;19.95;15.32;;;-0.40;99.90;;;;;;5031700;28;20349;-73
2022/01/07 01:47:49;;;;;;;18.67;14.57;;;-0.40;99.90;;;;;;5033225;28;20207;-73
2022/01/07 01:50:17;;;;;;;17.25;15.45;;;-0.40;99.90;;;;;;5033806;28;20287;-74
2022/01/07 01:52:46;;;;;;;19.35;16.23;;;-0.40;99.90;;;;;;5033392;28;20233;-73
2022/01/07 01:55:14;;;;;;;18.95;15.15;;;-0.40;99.90;;;;;;5033997;28;20326;-74
2022/01/07 01:57:41;;;;;;;20.00;16.33;;;-0.40;99.90;;;;;;5033623;28;20202;-74
2022/01/07 02:00:10;;;;;;;20.85;16.33;;;-0.40;99.90;;;;;;5023256;28;20212;-72
2022/01/07 02:02:38;;;;;;;20.42;17.30;;;-0.50;99.90;;;;;;5027918;28;20662;-72
2022/01/07 02:05:07;;;;;;;21.02;15.98;;;-0.40;99.90;;;;;;5018604;28;20201;-73
2022/01/07 02:07:37;;;;;;;19.60;16.50;;;-0.50;99.90;;;;;;5031937;28;20197;-73
2022/01/07 02:10:06;;;;;;;18.35;16.40;;;-0.50;99.90;;;;;;5033014;28;20205;-73
2022/01/07 02:12:33;;;;;;;22.00;18.40;;;-0.50;99.90;;;;;;5033094;28;20252;-72
2022/01/07 02:15:01;;;;;;;22.95;17.15;;;-0.60;99.90;;;;;;5034090;28;20719;-74
2022/01/07 02:17:28;;;;;;;20.65;18.58;;;-0.60;99.90;;;;;;5030335;28;20216;-72
2022/01/07 02:19:57;;;;;;;19.88;17.70;;;-0.60;99.90;;;;;;5031068;28;20197;-73
2022/01/07 02:22:25;;;;;;;27.02;19.90;;;-0.60;99.90;;;;;;5032393;28;20283;-73
2022/01/07 02:24:53;;;;;;;19.85;17.75;;;-0.70;99.90;;;;;;5033195;28;20197;-74
2022/01/07 02:27:21;;;;;;;24.40;17.70;;;-0.70;99.90;;;;;;5032391;28;20751;-73
2022/01/07 02:29:49;;;;;;;20.38;17.20;;;-0.60;99.90;;;;;;5031606;28;20293;-73
2022/01/07 02:32:17;;;;;;;22.85;17.92;;;-0.70;99.90;;;;;;5022019;28;20247;-73
2022/01/07 02:34:44;;;;;;;24.15;19.02;;;-0.70;99.90;;;;;;5013748;28;20194;-73
2022/01/07 02:37:14;;;;;;;18.70;16.80;;;-0.70;99.90;;;;;;5018863;28;20205;-74
2022/01/07 02:39:41;;;;;;;21.05;17.90;;;-0.70;99.90;;;;;;5025331;28;20198;-73
2022/01/07 02:42:08;;;;;;;20.00;16.77;;;-0.60;99.90;;;;;;5029249;28;20307;-73
2022/01/07 02:44:35;;;;;;;18.33;16.10;;;-0.60;99.90;;;;;;5030005;28;20195;-74
2022/01/07 02:47:03;;;;;;;19.73;15.90;;;-0.60;99.90;;;;;;5028480;28;20201;-73
2022/01/07 02:49:30;;;;;;;21.83;16.95;;;-0.50;99.90;;;;;;5032443;28;20204;-73
2022/01/07 02:51:56;;;;;;;20.83;17.63;;;-0.60;99.90;;;;;;5033127;28;20202;-73
2022/01/07 02:54:25;;;;;;;18.70;16.80;;;-0.50;99.90;;;;;;5032678;28;20562;-73
2022/01/07 02:56:52;;;;;;;18.08;16.17;;;-0.50;99.90;;;;;;5031706;28;20204;-74
2022/01/07 02:59:19;;;;;;;18.75;16.08;;;-0.60;99.90;;;;;;5027607;28;20222;-73
2022/01/07 03:01:46;;;;;;;21.00;17.60;;;-0.50;99.90;;;;;;5013421;28;20234;-74
2022/01/07 03:04:13;;;;;;;25.15;16.70;;;-0.60;99.90;;;;;;5022437;28;20195;-74
2022/01/07 03:06:41;;;;;;;21.63;17.33;;;-0.60;99.90;;;;;;5013835;28;20205;-75
2022/01/07 03:09:08;;;;;;;19.58;16.98;;;-0.60;99.90;;;;;;5030969;28;20645;-74
2022/01/07 03:11:36;;;;;;;17.20;15.43;;;-0.60;99.90;;;;;;5025325;28;20201;-74
2022/01/07 03:14:04;;;;;;;18.38;16.33;;;-0.60;99.90;;;;;;5030191;28;20230;-74
2022/01/07 03:16:31;;;;;;;18.67;15.63;;;-0.50;99.90;;;;;;5033014;28;20236;-74
2022/01/07 03:18:58;;;;;;;21.13;15.70;;;-0.50;99.90;;;;;;5014115;28;20204;-73
2022/01/07 03:21:25;;;;;;;18.00;15.35;;;-0.50;99.90;;;;;;5031253;28;20205;-73
2022/01/07 03:23:52;;;;;;;18.17;14.35;;;-0.50;99.90;;;;;;5031925;28;20224;-74
2022/01/07 03:26:19;;;;;;;18.15;14.95;;;-0.50;99.90;;;;;;5031763;28;20600;-74
2022/01/07 03:28:47;;;;;;;18.17;14.88;;;-0.50;99.90;;;;;;5023034;28;20293;-74
2022/01/07 03:31:14;;;;;;;20.15;15.25;;;-0.40;99.90;;;;;;5032620;28;20230;-74
2022/01/07 03:33:41;;;;;;;16.52;14.27;;;-0.40;99.90;;;;;;5031059;28;20236;-74
2022/01/07 03:36:09;;;;;;;15.20;13.60;;;-0.40;99.90;;;;;;5032614;28;20307;-74
2022/01/07 03:38:36;;;;;;;16.38;13.52;;;-0.40;99.90;;;;;;5028846;28;20654;-74
2022/01/07 03:41:03;;;;;;;16.05;14.18;;;-0.40;99.90;;;;;;5029785;28;20277;-73
2022/01/07 03:43:30;;;;;;;16.75;14.13;;;-0.40;99.90;;;;;;5032168;28;20232;-74
2022/01/07 03:45:59;;;;;;;19.92;13.68;;;-0.30;99.90;;;;;;5032432;28;20212;-73
2022/01/07 03:48:26;;;;;;;14.65;12.80;;;-0.20;99.90;;;;;;5019924;28;20220;-74
2022/01/07 03:50:53;;;;;;;16.08;12.68;;;-0.10;99.90;;;;;;5031992;28;20287;-74
2022/01/07 03:53:22;;;;;;;14.63;13.13;;;-0.10;99.90;;;;;;5031316;28;20222;-74
2022/01/07 03:55:49;;;;;;;17.88;13.65;;;-0.10;99.90;;;;;;5031688;28;20226;-73
2022/01/07 03:58:16;;;;;;;16.40;13.32;;;-0.10;99.90;;;;;;5031689;28;20561;-74
2022/01/07 04:00:44;;;;;;;15.82;13.85;;;-0.10;99.90;;;;;;5030417;28;20198;-74
2022/01/07 04:03:14;;;;;;;12.93;11.43;;;0.00;99.90;;;;;;5031739;28;20228;-74
2022/01/07 04:05:42;;;;;;;14.73;11.73;;;0.00;99.90;;;;;;5031872;28;20197;-74
2022/01/07 04:08:09;;;;;;;13.65;12.20;;;0.00;99.90;;;;;;5031105;28;20201;-74
2022/01/07 04:10:37;;;;;;;13.80;11.35;;;0.00;99.90;;;;;;5029059;28;20198;-74
2022/01/07 04:13:04;;;;;;;14.15;12.50;;;0.00;99.90;;;;;;5012018;28;20222;-74
2022/01/07 04:15:32;;;;;;;15.48;13.13;;;0.00;99.90;;;;;;5011808;28;20341;-73
2022/01/07 04:17:59;;;;;;;16.05;13.05;;;-0.10;99.90;;;;;;5024639;28;20209;-73
2022/01/07 04:20:30;;;;;;;13.18;11.82;;;-0.10;99.90;;;;;;5030115;28;20227;-74
2022/01/07 04:22:57;;;;;;;19.52;13.70;;;-0.10;99.90;;;;;;5031133;28;20228;-74
2022/01/07 04:25:24;;;;;;;17.23;13.48;;;-0.20;99.90;;;;;;5025485;28;20272;-75
2022/01/07 04:27:54;;;;;;;16.10;14.40;;;-0.20;99.90;;;;;;5020010;28;20201;-74
2022/01/07 04:30:22;;;;;;;15.30;13.70;;;-0.30;99.90;;;;;;5031760;28;20293;-74
2022/01/07 04:32:49;;;;;;;15.32;13.55;;;-0.30;99.90;;;;;;5025339;28;20246;-75
2022/01/07 04:35:17;;;;;;;19.80;14.85;;;-0.40;99.90;;;;;;5021752;28;20194;-74
2022/01/07 04:37:46;;;;;;;17.90;14.45;;;-0.40;99.90;;;;;;5029405;28;20201;-73
2022/01/07 04:40:14;;;;;;;16.95;14.13;;;-0.40;99.90;;;;;;5031325;28;20202;-75
2022/01/07 04:42:41;;;;;;;17.63;14.93;;;-0.40;99.90;;;;;;5029272;28;21955;-74
2022/01/07 04:45:09;;;;;;;15.93;13.88;;;-0.50;99.90;;;;;;5017577;28;20654;-74
2022/01/07 04:47:36;;;;;;;16.90;13.60;;;-0.40;99.90;;;;;;5028484;28;20736;-74
2022/01/07 04:50:05;;;;;;;16.40;12.38;;;-0.40;99.90;;;;;;5016413;28;20244;-75
2022/01/07 04:52:32;;;;;;;15.93;13.32;;;-0.40;99.90;;;;;;5035015;28;20308;-74
2022/01/07 04:55:00;;;;;;;14.02;11.80;;;-0.40;99.90;;;;;;5034542;28;20197;-73
2022/01/07 04:57:27;;;;;;;16.17;12.60;;;-0.40;99.90;;;;;;5031849;28;20583;-73
2022/01/07 04:59:54;;;;;;;14.80;12.82;;;-0.40;99.90;;;;;;5034976;28;20265;-74
2022/01/07 05:02:21;;;;;;;14.40;12.85;;;-0.50;99.90;;;;;;5019424;28;20239;-74
2022/01/07 05:04:49;;;;;;;16.38;12.07;;;-0.40;99.90;;;;;;5030907;28;20276;-74
2022/01/07 05:07:16;;;;;;;13.10;11.63;;;-0.40;99.90;;;;;;5029620;28;20193;-74
2022/01/07 05:09:43;;;;;;;16.95;11.40;;;-0.40;99.90;;;;;;5034709;28;20198;-74
2022/01/07 05:12:12;;;;;;;15.77;12.35;;;-0.30;99.90;;;;;;5032561;28;20217;-74
2022/01/07 05:14:39;;;;;;;12.25;10.48;;;-0.30;99.90;;;;;;5030349;28;20253;-74
2022/01/07 05:17:06;;;;;;;12.15;10.57;;;-0.30;99.90;;;;;;5024875;28;20313;-74
2022/01/07 05:19:33;;;;;;;11.00;9.63;;;-0.20;99.90;;;;;;5032806;28;20198;-75
2022/01/07 05:22:01;;;;;;;12.65;10.30;;;-0.20;99.90;;;;;;5034403;28;20257;-75
2022/01/07 05:24:28;;;;;;;11.23;10.10;;;-0.10;99.90;;;;;;5034408;28;20734;-74
2022/01/07 05:26:55;;;;;;;11.88;9.43;;;-0.10;99.90;;;;;;5033378;28;20201;-75
2022/01/07 05:29:23;;;;;;;12.07;9.63;;;-0.20;99.90;;;;;;5034043;28;20302;-73
2022/01/07 05:31:51;;;;;;;10.02;8.77;;;-0.20;99.90;;;;;;5034624;28;20218;-74
2022/01/07 05:34:18;;;;;;;10.25;9.05;;;-0.30;99.90;;;;;;5033212;28;20325;-74
2022/01/07 05:36:45;;;;;;;11.55;9.00;;;-0.30;99.90;;;;;;5022418;28;20604;-74
2022/01/07 05:39:12;;;;;;;9.35;7.80;;;-0.30;99.90;;;;;;5034201;28;20213;-74
2022/01/07 05:41:39;;;;;;;10.20;8.13;;;-0.30;99.90;;;;;;5034456;28;20305;-74
2022/01/07 05:44:07;;;;;;;10.93;8.60;;;-0.30;99.90;;;;;;5024239;28;20187;-74
2022/01/07 05:46:35;;;;;;;11.93;8.60;;;-0.30;99.90;;;;;;5033832;28;20233;-74
2022/01/07 05:49:02;;;;;;;9.52;7.85;;;-0.30;99.90;;;;;;5018987;28;20231;-73
2022/01/07 05:51:29;;;;;;;10.25;7.70;;;-0.30;99.90;;;;;;5034201;28;20220;-74
2022/01/07 05:53:56;;;;;;;8.40;7.50;;;-0.30;99.90;;;;;;5026793;28;20222;-74
2022/01/07 05:56:23;;;;;;;9.85;7.65;;;-0.30;99.90;;;;;;5017286;28;20194;-74
2022/01/07 05:58:50;;;;;;;8.10;7.30;;;-0.20;99.90;;;;;;5021777;28;20210;-75
2022/01/07 06:01:17;;;;;;;11.50;7.88;;;-0.20;99.90;;;;;;5029298;28;20624;-74
2022/01/07 06:03:45;;;;;;;9.07;7.78;;;-0.20;99.90;;;;;;5033978;28;20220;-76
2022/01/07 06:06:12;;;;;;;7.60;6.70;;;-0.30;99.90;;;;;;5034444;28;20204;-75
2022/01/07 06:08:39;;;;;;;7.45;6.63;;;-0.40;99.90;;;;;;5032312;28;20291;-73
2022/01/07 06:11:06;;;;;;;9.40;8.40;;;-0.40;99.90;;;;;;5025666;28;20201;-73
2022/01/07 06:13:33;;;;;;;11.73;8.18;;;-0.50;99.90;;;;;;5032899;28;20235;-73
2022/01/07 06:16:00;;;;;;;10.43;8.38;;;-0.50;99.90;;;;;;5022346;28;20618;-74
2022/01/07 06:18:27;;;;;;;13.23;9.57;;;-0.50;99.90;;;;;;5026343;28;20285;-74
2022/01/07 06:20:55;;;;;;;15.07;9.02;;;-0.50;99.90;;;;;;5020777;28;20642;-74
2022/01/07 06:23:22;;;;;;;11.73;8.80;;;-0.50;99.90;;;;;;5025966;28;20305;-75
2022/01/07 06:25:50;;;;;;;11.57;9.23;;;-0.50;99.90;;;;;;5030202;28;20202;-77
2022/01/07 06:28:17;;;;;;;11.98;7.80;;;-0.50;99.90;;;;;;5031243;28;20205;-74
2022/01/07 06:30:44;;;;;;;10.82;8.48;;;-0.50;99.90;;;;;;5029891;28;20275;-73
2022/01/07 06:33:11;;;;;;;10.70;8.88;;;-0.40;99.90;;;;;;5022593;28;20303;-73
2022/01/07 06:35:38;;;;;;;10.35;9.10;;;-0.40;99.90;;;;;;5027437;28;20306;-74
2022/01/07 06:38:07;;;;;;;10.15;9.00;;;-0.40;99.90;;;;;;5028293;28;20207;-73
2022/01/07 06:40:34;;;;;;;11.70;9.30;;;-0.40;99.90;;;;;;5033029;28;20201;-74
2022/01/07 06:43:01;;;;;;;10.50;8.60;;;-0.30;99.90;;;;;;5026534;28;20227;-72
2022/01/07 06:45:28;;;;;;;11.93;8.60;;;-0.40;99.90;;;;;;5032009;28;20217;-74
2022/01/07 06:47:55;;;;;;;12.90;9.25;;;-0.40;99.90;;;;;;5028555;28;20205;-74
2022/01/07 06:50:22;;;;;;;10.43;9.02;;;-0.40;99.90;;;;;;5036693;28;20649;-74
2022/01/07 06:52:49;;;;;;;9.88;8.70;;;-0.30;99.90;;;;;;5030258;28;20213;-74
2022/01/07 06:55:18;;;;;;;11.70;9.18;;;-0.40;99.90;;;;;;5033939;28;20319;-74
2022/01/07 06:57:44;;;;;;;10.95;8.68;;;-0.40;99.90;;;;;;5028589;28;20196;-74
2022/01/07 07:00:12;;;;;;;11.70;8.80;;;-0.40;99.90;;;;;;5033106;28;20256;-74
2022/01/07 07:02:39;;;;;;;10.95;8.82;;;-0.30;99.90;;;;;;5034605;28;20285;-73
2022/01/07 07:05:06;;;;;;;11.90;9.63;;;-0.30;99.90;;;;;;5034638;28;20191;-73
2022/01/07 07:07:33;;;;;;;12.60;9.38;;;-0.30;99.90;;;;;;5018592;28;20248;-74
2022/01/07 07:10:00;;;;;;;10.63;9.15;;;-0.40;99.90;;;;;;5026365;28;20926;-72
2022/01/07 07:12:29;;;;;;;10.15;8.40;;;-0.30;99.90;;;;;;5026404;28;20224;-74
2022/01/07 07:14:56;;;;;;;12.02;8.98;;;-0.30;99.90;;;;;;5023509;28;20243;-74
2022/01/07 07:17:24;;;;;;;11.63;9.32;;;-0.20;99.90;;;;;;5029112;28;20203;-76
2022/01/07 07:19:51;;;;;;;10.70;9.35;;;-0.20;99.90;;;;;;5026099;28;20364;-75
2022/01/07 07:22:19;;;;;;;11.48;9.35;;;-0.10;99.90;;;;;;5026535;28;20228;-75
2022/01/07 07:24:46;;;;;;;11.63;9.00;;;-0.20;99.90;;;;;;5028071;28;20247;-75
2022/01/07 07:27:13;;;;;;;12.07;9.07;;;-0.20;99.90;;;;;;5028076;28;20204;-74
2022/01/07 07:29:41;;;;;;;13.02;10.30;;;-0.10;99.90;;;;;;5024677;28;20236;-74
2022/01/07 07:32:10;;;;;;;11.20;9.75;;;-0.10;99.90;;;;;;5026567;28;20218;-74
2022/01/07 07:34:59;;;;;;;14.88;9.65;;;-0.10;99.90;;;;;;5026812;28;20229;-74
2022/01/07 07:37:26;;;;;;;12.25;10.18;;;0.00;99.90;;;;;;5023817;28;20194;-74
2022/01/07 07:39:53;;;;;;;13.15;9.65;;;-0.10;99.90;;;;;;5026011;28;20675;-73
2022/01/07 07:42:20;;;;;;;10.65;9.00;;;0.00;99.90;;;;;;5028233;28;20230;-72
2022/01/07 07:44:49;;;;;;;11.48;8.82;;;0.00;99.90;;;;;;5011175;28;20649;-74
2022/01/07 07:47:16;;;;;;;10.43;9.23;;;0.00;99.90;;;;;;5026937;28;20190;-74
2022/01/07 07:49:43;;;;;;;9.77;7.85;;;0.10;99.90;;;;;;5026228;28;20196;-72
2022/01/07 07:52:10;;;;;;;11.57;9.20;;;0.10;99.90;;;;;;5025959;28;20692;-73
2022/01/07 07:54:37;;;;;;;10.77;9.10;;;0.10;99.90;;;;;;5023033;28;20236;-74
2022/01/07 07:57:04;;;;;;;10.30;8.70;;;0.20;99.90;;;;;;5021893;28;20202;-73
2022/01/07 07:59:31;;;;;;;10.85;8.88;;;0.20;99.90;;;;;;5020650;28;20212;-74
2022/01/07 08:02:00;;;;;;;10.98;9.00;;;0.20;99.90;;;;;;5028011;28;20620;-74
2022/01/07 08:04:27;;;;;;;11.07;8.60;;;0.30;99.90;;;;;;5025207;28;20210;-74
2022/01/07 08:06:55;;;;;;;12.20;8.77;;;0.30;99.90;;;;;;5025592;28;20552;-74
2022/01/07 08:09:22;;;;;;;10.32;8.65;;;0.30;99.90;;;;;;5027971;28;20603;-75
2022/01/07 08:11:51;;;;;;;9.98;7.72;;;0.40;99.90;;;;;;5028923;28;20217;-73
2022/01/07 08:17:07;;;;;;;11.68;8.70;;;0.50;99.90;;;;;;5023774;28;20620;-73
2022/01/07 08:19:34;;;;;;;10.88;8.63;;;0.50;99.90;;;;;;5027418;28;20198;-73
2022/01/07 08:22:01;;;;;;;12.55;8.85;;;0.60;99.90;;;;;;5026113;28;20232;-74
2022/01/07 08:24:28;;;;;;;11.32;8.45;;;0.60;99.90;;;;;;5023449;28;20190;-74
2022/01/07 08:26:56;;;;;;;10.48;7.93;;;0.70;99.90;;;;;;5028836;28;20288;-74
2022/01/07 08:29:25;;;;;;;10.43;8.10;;;0.70;99.90;;;;;;5027667;28;20202;-74
2022/01/07 08:34:57;;;;;;;9.25;8.00;;;0.80;99.90;;;;;;5024106;28;20494;-74
2022/01/07 08:37:26;;;;;;;10.50;8.35;;;0.90;99.90;;;;;;5028897;28;20197;-74
2022/01/07 08:39:54;;;;;;;10.18;7.90;;;0.90;99.90;;;;;;5026668;28;20306;-74
2022/01/07 08:42:23;;;;;;;11.20;7.68;;;0.90;99.90;;;;;;5027789;28;20715;-75
2022/01/07 08:44:53;;;;;;;10.25;8.60;;;0.90;99.90;;;;;;5021637;28;20584;-75
2022/01/07 08:47:21;;;;;;;13.57;9.18;;;0.90;99.90;;;;;;5024819;28;20198;-75
2022/01/07 08:49:50;;;;;;;10.25;8.00;;;0.90;99.90;;;;;;5028204;28;20229;-74
2022/01/07 08:52:17;;;;;;;9.45;7.70;;;0.90;99.90;;;;;;5023097;28;20626;-75
2022/01/07 08:54:44;;;;;;;9.70;8.18;;;0.90;99.90;;;;;;5019457;28;20714;-74
2022/01/07 08:57:11;;;;;;;8.60;7.70;;;0.90;99.90;;;;;;5026953;28;20223;-75
2022/01/07 08:59:39;;;;;;;10.30;8.60;;;1.00;99.90;;;;;;5027229;28;20200;-74
2022/01/07 09:02:06;;;;;;;9.63;7.18;;;1.00;99.90;;;;;;5022524;28;20246;-74
2022/01/07 09:04:33;;;;;;;9.32;7.68;;;1.10;99.90;;;;;;5019724;28;20202;-74
2022/01/07 09:07:01;;;;;;;9.95;7.72;;;1.10;99.90;;;;;;5024460;28;20284;-74
2022/01/07 09:09:28;;;;;;;10.27;8.02;;;1.20;99.90;;;;;;5018571;28;20305;-76
2022/01/07 09:11:55;;;;;;;9.57;7.95;;;1.20;99.90;;;;;;5019730;28;20228;-75
2022/01/07 09:14:22;;;;;;;10.82;8.30;;;1.30;99.90;;;;;;5020511;28;20234;-75
2022/01/07 09:16:49;;;;;;;9.95;7.97;;;1.30;99.90;;;;;;5022410;28;20198;-75
2022/01/07 09:19:16;;;;;;;10.38;8.15;;;1.30;99.90;;;;;;5023527;28;20216;-75
2022/01/07 09:21:43;;;;;;;9.98;8.18;;;1.30;99.90;;;;;;5026656;28;20218;-75
2022/01/07 09:24:11;;;;;;;12.07;8.07;;;1.40;99.90;;;;;;5029270;28;20209;-76
2022/01/07 09:26:38;;;;;;;9.73;8.70;;;1.40;99.90;;;;;;5034370;28;20295;-75
2022/01/07 09:29:05;;;;;;;9.15;8.25;;;1.40;99.90;;;;;;5025017;28;20204;-76
2022/01/07 09:31:33;;;;;;;9.18;7.75;;;1.40;99.90;;;;;;5022431;28;20248;-77
2022/01/07 09:34:01;;;;;;;9.05;7.60;;;1.40;99.90;;;;;;5027525;28;20283;-76
2022/01/07 09:36:28;;;;;;;8.45;7.45;;;1.50;99.90;;;;;;5027146;28;20288;-76
2022/01/07 09:38:55;;;;;;;9.90;7.35;;;1.40;99.90;;;;;;5030856;28;20676;-74
2022/01/07 09:41:23;;;;;;;8.20;7.10;;;1.50;99.90;;;;;;5032268;28;20240;-75
2022/01/07 09:43:50;;;;;;;9.82;7.60;;;1.50;99.90;;;;;;5029975;28;20194;-75
2022/01/07 09:46:19;;;;;;;10.15;7.95;;;1.50;99.90;;;;;;5027230;28;20198;-75
2022/01/07 09:48:46;;;;;;;8.85;7.85;;;1.60;99.90;;;;;;5020643;28;20213;-75
2022/01/07 09:51:15;;;;;;;8.20;7.30;;;1.60;99.90;;;;;;5026986;28;20553;-77
2022/01/07 09:53:45;;;;;;;8.63;7.72;;;1.70;99.90;;;;;;5024531;28;20891;-79
2022/01/07 09:56:13;;;;;;;10.77;7.90;;;1.70;99.90;;;;;;5017783;28;20311;-79
2022/01/07 09:58:41;;;;;;;10.15;6.70;;;1.70;99.90;;;;;;5024495;28;20368;-76
2022/01/07 10:01:10;;;;;;;9.20;7.55;;;1.70;99.90;;;;;;5020240;28;20222;-75
2022/01/07 10:03:39;;;;;;;8.10;6.43;;;1.70;99.90;;;;;;5020461;28;20297;-75
2022/01/07 10:06:18;;;;;;;8.15;7.35;;;1.70;99.90;;;;;;5026879;28;20194;-86
2022/01/07 10:08:47;;;;;;;8.88;7.00;;;1.70;99.90;;;;;;5026293;28;20281;-85
2022/01/07 10:11:16;;;;;;;10.35;6.75;;;1.70;99.90;;;;;;5026174;28;20209;-75
2022/01/07 10:13:46;;;;;;;8.40;7.60;;;1.70;99.90;;;;;;5022874;28;20598;-76
2022/01/07 10:16:15;;;;;;;9.55;6.40;;;1.90;99.90;;;;;;5024116;28;20900;-76
2022/01/07 10:18:43;;;;;;;12.05;7.60;;;1.70;99.90;;;;;;5029192;28;20276;-76
2022/01/07 10:21:11;;;;;;;9.52;7.07;;;1.70;99.90;;;;;;5024485;28;20214;-76
2022/01/07 10:23:39;;;;;;;8.90;7.85;;;1.60;99.90;;;;;;5023811;28;20664;-75
2022/01/07 10:26:14;;;;;;;8.52;7.63;;;1.50;99.90;;;;;;5016631;28;20203;-76
2022/01/07 10:28:41;;;;;;;9.07;8.00;;;1.40;99.90;;;;;;5027733;28;20197;-75
2022/01/07 10:31:10;;;;;;;9.82;8.02;;;1.30;99.90;;;;;;5028641;28;20217;-75
2022/01/07 10:33:39;;;;;;;9.75;8.10;;;1.20;99.90;;;;;;5027269;28;20546;-77
2022/01/07 10:36:18;;;;;;;10.40;8.55;;;1.20;99.90;;;;;;5029155;28;20228;-77
2022/01/07 10:38:52;;;;;;;10.55;9.20;;;1.20;99.90;;;;;;5020685;28;20202;-77
2022/01/07 10:41:20;;;;;;;12.48;9.18;;;1.10;99.90;;;;;;5025503;28;20283;-78
2022/01/07 10:43:48;;;;;;;11.82;9.77;;;1.10;99.90;;;;;;5017129;28;20220;-77
2022/01/07 10:46:20;;;;;;;10.88;9.55;;;1.10;99.90;;;;;;5023041;28;20281;-76
2022/01/07 10:48:51;;;;;;;14.50;9.65;;;1.10;99.90;;;;;;5030186;28;20198;-78
2022/01/07 10:51:22;;;;;;;11.35;9.65;;;1.00;99.90;;;;;;5025755;28;20214;-77
2022/01/07 10:53:53;;;;;;;13.30;9.90;;;1.00;99.90;;;;;;5025720;28;20210;-76
2022/01/07 10:56:22;;;;;;;17.25;10.95;;;1.00;99.90;;;;;;5029106;28;20225;-78
2022/01/07 10:59:03;;;;;;;12.73;10.38;;;1.00;99.90;;;;;;5028723;28;20198;-77
2022/01/07 11:01:34;;;;;;;13.90;10.43;;;1.00;99.90;;;;;;5022927;28;20301;-78
2022/01/07 11:04:03;;;;;;;13.30;10.95;;;1.00;99.90;;;;;;5017041;28;20653;-78
2022/01/07 11:06:31;;;;;;;12.40;10.70;;;1.00;99.90;;;;;;5016602;28;20205;-77
2022/01/07 11:08:59;;;;;;;13.45;11.63;;;0.90;99.90;;;;;;5025809;28;20650;-77
2022/01/07 11:11:28;;;;;;;11.65;10.45;;;1.00;99.90;;;;;;5027077;28;20217;-78
2022/01/07 11:14:01;;;;;;;14.35;11.20;;;1.00;99.90;;;;;;5026840;28;20198;-78
2022/01/07 11:16:28;;;;;;;13.75;12.25;;;0.90;99.90;;;;;;5018360;28;20237;-78
2022/01/07 11:18:59;;;;;;;15.85;12.02;;;0.90;99.90;;;;;;5023156;28;20190;-78
2022/01/07 11:21:26;;;;;;;14.50;11.60;;;0.90;99.90;;;;;;5025950;28;20213;-77
2022/01/07 11:23:53;;;;;;;16.52;12.70;;;0.90;99.90;;;;;;5022107;28;20316;-77
2022/01/07 11:26:20;;;;;;;16.60;12.13;;;0.90;99.90;;;;;;5022529;28;20727;-78
2022/01/07 11:28:59;;;;;;;16.02;12.73;;;1.00;99.90;;;;;;5019013;28;20669;-78
2022/01/07 11:31:29;;;;;;;14.85;12.60;;;1.00;99.90;;;;;;5023151;28;20217;-78
2022/01/07 11:34:27;;;;;;;15.25;12.00;;;1.00;99.90;;;;;;5027795;28;20202;-84
2022/01/07 11:36:55;;;;;;;13.85;11.90;;;1.00;99.90;;;;;;5025787;28;20214;-78
2022/01/07 11:39:23;;;;;;;15.43;12.52;;;1.10;99.90;;;;;;5020990;28;20226;-78
2022/01/07 11:41:53;;;;;;;15.65;12.32;;;1.10;99.90;;;;;;5026924;28;20229;-78
2022/01/07 11:44:26;;;;;;;16.73;13.32;;;1.10;99.90;;;;;;5024410;28;20292;-78
2022/01/07 11:47:23;;;;;;;14.45;11.75;;;1.10;99.90;;;;;;5028071;28;20427;-78
2022/01/07 11:50:05;;;;;;;13.45;11.15;;;1.20;99.90;;;;;;5028741;28;20198;-78
2022/01/07 11:52:34;;;;;;;16.75;13.45;;;1.30;99.90;;;;;;5025866;28;20194;-79
2022/01/07 11:55:20;;;;;;;15.05;11.70;;;1.30;99.90;;;;;;5025041;28;20762;-78
2022/01/07 11:57:52;;;;;;;16.33;13.13;;;1.30;99.90;;;;;;5028560;28;20209;-77
2022/01/07 12:00:53;;;;;;;16.40;13.25;;;1.30;99.90;;;;;;5022288;28;20220;-77
2022/01/07 12:03:39;;;;;;;15.50;12.45;;;1.30;99.90;;;;;;5017011;28;20210;-77
2022/01/07 12:06:44;;;;;;;16.63;12.40;;;1.30;99.90;;;;;;5031831;28;20255;-78
2022/01/07 12:09:19;;;;;;;16.23;13.70;;;1.30;99.90;;;;;;5031041;28;20248;-77
2022/01/07 12:11:53;;;;;;;17.08;12.90;;;1.30;99.90;;;;;;5026664;28;20217;-78
2022/01/07 12:14:24;;;;;;;15.52;12.98;;;1.30;99.90;;;;;;5029788;28;20194;-78
2022/01/07 12:16:53;;;;;;;14.05;11.27;;;1.20;99.90;;;;;;5025716;28;20734;-78
2022/01/07 12:19:59;;;;;;;13.77;12.18;;;1.20;99.90;;;;;;5019169;28;20200;-79
2022/01/07 12:22:26;;;;;;;15.95;12.48;;;1.30;99.90;;;;;;5024672;28;20193;-79
2022/01/07 12:25:01;;;;;;;14.85;12.20;;;1.30;99.90;;;;;;5019704;28;20310;-78
2022/01/07 12:27:28;;;;;;;17.08;12.80;;;1.30;99.90;;;;;;5028418;28;20192;-78
2022/01/07 12:29:57;;;;;;;14.27;12.45;;;1.30;99.90;;;;;;5027303;28;20198;-79
2022/01/07 12:32:34;;;;;;;15.27;12.50;;;1.30;99.90;;;;;;5026131;28;20711;-78
2022/01/07 12:35:02;;;;;;;13.13;11.48;;;1.30;99.90;;;;;;5028124;28;20336;-77
2022/01/07 12:37:29;;;;;;;15.18;12.55;;;1.40;99.90;;;;;;5023123;28;20198;-79
2022/01/07 12:39:57;;;;;;;13.32;11.40;;;1.40;99.90;;;;;;5023578;28;20203;-78
2022/01/07 12:42:28;;;;;;;13.43;11.02;;;1.40;99.90;;;;;;5024586;28;20574;-78
2022/01/07 12:44:57;;;;;;;13.00;11.00;;;1.50;99.90;;;;;;5028189;28;20712;-78
2022/01/07 12:47:26;;;;;;;12.23;10.90;;;1.50;99.90;;;;;;5025155;28;20199;-78
2022/01/07 12:49:55;;;;;;;13.70;11.20;;;1.60;99.90;;;;;;5028393;28;20221;-78
2022/01/07 12:52:26;;;;;;;11.82;10.38;;;1.70;99.90;;;;;;5023630;28;20201;-78